Time;durP1;ratioP1;P1;durP2;ratioP2;P2;SDS_P1;SDS_P2;PMS_P1;PMS_P2;Temp;Humidity;BMP_temperature;BMP_pressure;BME280_temperature;BME280_humidity;BME280_pressure;Samples;Min_cycle;Max_cycle;Signal;HPM_P1;HPM_P2
2022/05/26 00:07:20;;;;;;;3.13;0.73;;;;;;;16.19;72.11;100817.09;21159281;28;20512;-66
2022/05/26 00:17:22;;;;;;;2.90;0.65;;;;;;;16.20;71.82;100820.63;21158530;28;20085;-66
2022/05/26 00:27:24;;;;;;;2.22;0.50;;;;;;;16.18;71.91;100818.03;21157788;28;20043;-65
2022/05/26 00:37:26;;;;;;;2.90;0.80;;;;;;;16.22;73.40;100832.88;21156302;28;20040;-66
2022/05/26 00:47:31;;;;;;;3.33;0.70;;;;;;;16.14;72.99;100841.06;21156292;28;20054;-66
2022/05/26 00:57:37;;;;;;;3.03;0.57;;;;;;;16.04;74.06;100850.16;21155081;28;20117;-65
2022/05/26 01:07:39;;;;;;;2.88;0.70;;;;;;;15.95;73.18;100855.72;21154772;28;20408;-65
2022/05/26 01:18:15;;;;;;;2.60;0.60;;;;;;;15.96;73.83;100844.28;21153767;28;20097;-65
2022/05/26 01:28:54;;;;;;;3.10;0.50;;;;;;;15.96;73.92;100844.28;21153178;28;20554;-65
2022/05/26 01:39:05;;;;;;;1.63;0.50;;;;;;;15.79;73.45;100835.97;21152969;28;20051;-65
2022/05/26 01:49:16;;;;;;;2.65;0.80;;;;;;;15.64;73.85;100851.38;21152365;28;20056;-65
2022/05/26 01:59:23;;;;;;;3.05;0.70;;;;;;;15.46;74.27;100854.50;21151170;28;20475;-65
2022/05/26 02:09:38;;;;;;;2.90;0.88;;;;;;;15.37;73.31;100858.25;21149811;28;20044;-65
2022/05/26 02:20:03;;;;;;;2.40;0.70;;;;;;;15.22;74.14;100856.06;21150323;28;20047;-65
2022/05/26 02:30:07;;;;;;;4.20;0.57;;;;;;;15.14;74.50;100863.34;21149431;28;20089;-65
2022/05/26 02:40:09;;;;;;;2.35;0.50;;;;;;;14.97;75.85;100871.69;21150385;28;20107;-65
2022/05/26 02:50:20;;;;;;;2.83;0.73;;;;;;;14.85;76.83;100877.25;21148764;28;20055;-64
2022/05/26 03:00:38;;;;;;;3.85;0.50;;;;;;;14.73;77.44;100882.88;21148034;28;20048;-64
2022/05/26 03:10:39;;;;;;;1.55;0.70;;;;;;;14.64;78.08;100870.78;21148030;28;20488;-64
2022/05/26 03:20:41;;;;;;;2.95;0.70;;;;;;;14.81;76.55;100876.50;21148044;28;20047;-64
2022/05/26 03:30:43;;;;;;;4.18;0.70;;;;;;;14.88;76.74;100888.59;21161992;28;20043;-64
2022/05/26 03:41:18;;;;;;;4.47;0.70;;;;;;;14.99;75.18;100890.09;21161282;28;20047;-64
2022/05/26 03:51:12;;;;;;;3.33;0.90;;;;;;;15.12;74.98;100900.28;21158895;28;20487;-64
2022/05/26 04:01:14;;;;;;;1.90;0.73;;;;;;;15.03;76.24;100908.44;21160396;28;20043;-64
2022/05/26 04:11:16;;;;;;;1.30;0.43;;;;;;;15.21;76.26;100906.22;21158120;28;20134;-64
2022/05/26 04:21:18;;;;;;;3.25;0.60;;;;;;;15.27;75.43;100916.59;21158835;28;20473;-64
2022/05/26 04:31:19;;;;;;;2.38;0.60;;;;;;;15.38;74.30;100920.72;21157326;28;20048;-64
2022/05/26 04:41:21;;;;;;;3.45;0.60;;;;;;;15.52;74.17;100920.34;21156237;28;20047;-64
2022/05/26 04:51:22;;;;;;;3.92;0.75;;;;;;;15.93;71.41;100928.00;21156459;28;20503;-64
2022/05/26 05:01:25;;;;;;;4.57;0.80;;;;;;;15.79;72.44;100941.59;21154465;28;20071;-64
2022/05/26 05:11:26;;;;;;;4.70;1.13;;;;;;;15.69;73.85;100941.00;21154393;28;20051;-65
2022/05/26 05:21:37;;;;;;;2.55;0.57;;;;;;;15.80;74.46;100948.59;21153749;28;20043;-64
2022/05/26 05:31:45;;;;;;;3.72;0.70;;;;;;;15.86;74.34;100949.31;21152768;28;20093;-64
2022/05/26 05:41:46;;;;;;;3.55;0.73;;;;;;;16.12;73.25;100971.44;21151963;28;20054;-64
2022/05/26 05:51:48;;;;;;;1.95;0.45;;;;;;;16.09;74.79;100982.09;21151139;28;20488;-64
2022/05/26 06:01:49;;;;;;;2.30;0.70;;;;;;;16.64;74.60;101002.44;21150493;28;20040;-64
2022/05/26 06:11:51;;;;;;;3.00;0.90;;;;;;;16.87;72.44;101003.56;21150409;28;20108;-64
2022/05/26 06:21:53;;;;;;;1.98;0.52;;;;;;;17.19;69.61;101021.84;21149823;28;20382;-64
2022/05/26 06:42:14;;;;;;;2.15;0.65;;;;;;;17.70;68.47;101028.94;21149303;28;20047;-64
2022/05/26 06:52:18;;;;;;;2.45;0.80;;;;;;;17.49;68.24;101045.59;21147397;28;20100;-64
2022/05/26 07:02:19;;;;;;;2.80;0.73;;;;;;;17.77;67.30;101053.47;21155080;28;20051;-63
2022/05/26 07:12:22;;;;;;;3.33;1.02;;;;;;;17.86;67.24;101041.69;21117412;28;20117;-64
2022/05/26 07:22:23;;;;;;;5.72;1.00;;;;;;;18.46;63.68;101045.66;21088426;28;20055;-64
2022/05/26 07:32:25;;;;;;;4.00;1.30;;;;;;;18.40;64.44;101053.84;21069929;28;20060;-65
2022/05/26 07:42:31;;;;;;;2.38;0.95;;;;;;;18.79;63.63;101062.09;21127572;28;20100;-65
2022/05/26 07:52:33;;;;;;;2.78;1.00;;;;;;;19.12;60.30;101070.50;21153907;28;20052;-65
2022/05/26 08:02:34;;;;;;;3.80;0.90;;;;;;;19.01;61.93;101080.66;21150303;28;20050;-65
2022/05/26 08:12:36;;;;;;;4.35;0.80;;;;;;;19.12;61.98;101086.44;21124136;28;20052;-66
2022/05/26 08:31:48;;;;;;;6.57;1.10;;;;;;;19.51;63.17;101096.34;20975607;28;20729;-66
2022/05/26 08:41:52;;;;;;;2.83;1.10;;;;;;;18.96;62.94;101119.78;21046623;28;20079;-67
2022/05/26 08:52:04;;;;;;;5.40;1.07;;;;;;;19.27;62.14;101113.28;21044382;28;20055;-67
2022/05/26 09:02:23;;;;;;;5.20;1.45;;;;;;;19.49;61.67;101122.94;21044674;27;20459;-70
2022/05/26 09:22:46;;;;;;;8.05;1.02;;;;;;;19.39;63.22;101139.31;21043663;28;20052;-70
2022/05/26 09:32:48;;;;;;;3.95;0.88;;;;;;;19.66;61.81;101124.09;21043317;28;20447;-69
2022/05/26 09:42:58;;;;;;;6.28;1.10;;;;;;;19.53;64.01;101136.97;20988717;28;20056;-69
2022/05/26 09:53:38;;;;;;;3.97;1.30;;;;;;;19.30;66.47;101159.13;20988034;28;20044;-70
2022/05/26 10:03:58;;;;;;;4.72;1.05;;;;;;;19.11;64.35;101161.66;20985629;28;20094;-68
2022/05/26 10:14:36;;;;;;;3.88;1.00;;;;;;;19.04;65.94;101165.50;20973368;28;20098;-69
2022/05/26 10:24:47;;;;;;;4.18;1.10;;;;;;;19.38;65.05;101174.78;20982240;28;20457;-69
2022/05/26 10:35:13;;;;;;;3.10;0.80;;;;;;;20.51;59.86;101159.41;20982905;28;20049;-69
2022/05/26 10:45:27;;;;;;;5.10;1.15;;;;;;;20.25;59.51;101141.91;20981312;28;20052;-68
2022/05/26 10:55:49;;;;;;;5.57;1.10;;;;;;;19.38;63.91;101164.16;20981803;28;20442;-68
2022/05/26 11:06:16;;;;;;;2.58;0.90;;;;;;;19.92;62.09;101145.09;20980139;28;20048;-69
2022/05/26 11:26:53;;;;;;;1.55;0.70;;;;;;;20.38;59.05;101139.59;20896026;28;20469;-70
2022/05/26 11:37:02;;;;;;;2.80;0.82;;;;;;;20.05;60.20;101156.06;20895036;28;20041;-69
2022/05/26 11:47:26;;;;;;;3.13;1.02;;;;;;;20.46;60.39;101145.44;20894563;28;20060;-69
2022/05/26 11:57:37;;;;;;;4.80;1.00;;;;;;;20.08;61.06;101142.66;20895342;28;20144;-69
2022/05/26 12:07:40;;;;;;;4.93;1.20;;;;;;;19.83;62.20;101139.31;20892969;28;20716;-69
2022/05/26 12:17:48;;;;;;;4.55;1.00;;;;;;;20.45;58.55;101144.53;20958491;28;20078;-69
2022/05/26 12:27:58;;;;;;;2.25;0.70;;;;;;;19.80;61.79;101150.94;20975218;28;20049;-69
2022/05/26 12:38:25;;;;;;;2.28;0.75;;;;;;;19.99;61.13;101140.41;20974282;28;20090;-70
2022/05/26 12:49:17;;;;;;;2.03;0.80;;;;;;;19.88;61.59;101132.91;20974514;28;20052;-67
2022/05/26 12:59:24;;;;;;;2.38;0.80;;;;;;;20.53;59.06;101120.28;20927222;28;20056;-67
2022/05/26 13:09:32;;;;;;;2.38;0.80;;;;;;;20.93;52.69;101113.09;20974735;28;20044;-67
2022/05/26 13:19:41;;;;;;;2.03;0.80;;;;;;;21.01;50.19;101101.16;20908953;28;20056;-67
2022/05/26 13:29:46;;;;;;;4.47;0.90;;;;;;;20.96;52.86;101107.66;20904783;28;20425;-66
2022/05/26 13:40:08;;;;;;;4.82;0.95;;;;;;;21.25;52.02;101101.78;20904217;28;20053;-67
2022/05/26 13:50:10;;;;;;;4.35;0.80;;;;;;;21.50;47.93;101081.94;20903656;28;20111;-68
2022/05/26 14:00:26;;;;;;;3.97;1.08;;;;;;;20.95;50.81;101068.66;20901674;28;20052;-67
2022/05/26 14:10:29;;;;;;;3.38;0.90;;;;;;;21.46;47.28;101051.94;20906765;28;20045;-67
2022/05/26 14:20:30;;;;;;;3.08;0.98;;;;;;;22.08;47.73;101056.75;20984427;28;20048;-69
2022/05/26 14:30:51;;;;;;;7.63;1.40;;;;;;;22.86;50.00;101044.50;20981538;28;20039;-66
2022/05/26 14:40:53;;;;;;;2.17;0.80;;;;;;;21.99;45.80;101042.97;20982380;28;20410;-67
2022/05/26 14:50:54;;;;;;;5.28;0.98;;;;;;;21.35;49.29;101038.28;20981725;28;20519;-68
2022/05/26 15:00:57;;;;;;;3.78;0.85;;;;;;;21.08;50.47;101032.53;20979734;28;20052;-68
2022/05/26 15:10:58;;;;;;;4.63;1.10;;;;;;;21.01;49.78;101021.28;20970168;28;20147;-68
2022/05/26 15:21:00;;;;;;;2.65;0.98;;;;;;;21.18;48.76;101023.13;20895033;28;20095;-68
2022/05/26 15:31:03;;;;;;;2.05;0.70;;;;;;;21.40;45.88;101003.41;20897181;28;20098;-68
2022/05/26 15:41:06;;;;;;;3.30;0.90;;;;;;;21.59;45.23;101004.19;20893166;28;20089;-68
2022/05/26 15:51:08;;;;;;;3.10;0.70;;;;;;;21.51;44.24;100998.38;20893345;28;20522;-68
2022/05/26 16:01:10;;;;;;;2.67;0.98;;;;;;;22.09;44.08;100986.47;20894338;28;20033;-68
2022/05/26 16:11:13;;;;;;;5.25;1.00;;;;;;;21.83;44.35;100993.19;20903921;28;20102;-68
2022/05/26 16:21:15;;;;;;;5.65;1.58;;;;;;;21.65;45.45;100984.34;20973336;28;20044;-68
2022/05/26 16:31:16;;;;;;;5.90;1.60;;;;;;;21.72;45.42;100975.97;20972968;28;20045;-68
2022/05/26 16:41:18;;;;;;;3.78;1.40;;;;;;;21.89;46.09;100972.38;20975731;28;20044;-66
2022/05/26 16:51:20;;;;;;;3.92;1.20;;;;;;;22.15;45.26;100968.34;20987236;28;20101;-67
2022/05/26 17:01:21;;;;;;;3.58;0.95;;;;;;;22.23;44.14;100962.56;20989173;28;20051;-67
2022/05/26 17:11:23;;;;;;;5.40;1.30;;;;;;;22.15;44.39;100967.50;20975488;28;20052;-68
2022/05/26 17:21:25;;;;;;;3.45;1.13;;;;;;;21.72;45.74;100970.63;20904311;28;20417;-67
2022/05/26 17:31:26;;;;;;;6.70;1.23;;;;;;;21.81;46.23;100968.44;20902781;28;20418;-68
2022/05/26 17:41:37;;;;;;;3.05;0.90;;;;;;;21.82;45.93;100970.16;20904434;28;20433;-68
2022/05/26 17:51:41;;;;;;;3.80;0.90;;;;;;;21.74;46.62;100966.06;20903444;28;20041;-68
2022/05/26 18:01:44;;;;;;;5.40;1.10;;;;;;;21.33;49.15;100972.72;20901650;28;20048;-68
2022/05/26 18:11:46;;;;;;;2.70;0.90;;;;;;;20.98;50.93;100973.53;20918311;28;20052;-68
2022/05/26 18:21:47;;;;;;;2.75;1.10;;;;;;;20.64;51.30;100979.63;20983569;28;20193;-68
2022/05/26 18:31:51;;;;;;;2.85;1.00;;;;;;;20.39;53.84;100976.38;20982201;28;20059;-68
2022/05/26 18:41:53;;;;;;;4.90;1.20;;;;;;;19.93;55.82;100973.19;20982299;28;20044;-68
2022/05/26 18:51:54;;;;;;;3.63;1.15;;;;;;;19.59;57.83;100971.16;20980642;28;20485;-67
2022/05/26 19:01:56;;;;;;;3.45;1.27;;;;;;;19.25;59.73;100979.72;20980178;28;20182;-67
2022/05/26 19:11:57;;;;;;;2.22;0.93;;;;;;;19.00;61.12;100991.34;20959781;28;20056;-67
2022/05/26 19:22:00;;;;;;;5.32;1.20;;;;;;;18.69;63.46;101000.56;20901220;28;20057;-67
2022/05/26 19:32:04;;;;;;;3.85;1.35;;;;;;;18.40;66.16;101011.44;20976374;28;20056;-67
2022/05/26 19:42:10;;;;;;;4.00;1.50;;;;;;;18.12;68.32;101012.47;20975393;28;20110;-67
2022/05/26 19:52:12;;;;;;;3.67;1.05;;;;;;;17.91;70.57;101021.19;20975045;28;20053;-68
2022/05/26 20:02:13;;;;;;;4.47;1.27;;;;;;;17.78;69.32;101018.13;20976174;28;20048;-69
2022/05/26 20:12:15;;;;;;;3.03;1.20;;;;;;;17.60;71.62;101022.25;20975042;28;20104;-67
2022/05/26 20:22:17;;;;;;;4.13;1.23;;;;;;;17.46;72.82;101029.81;20973249;28;20102;-67
2022/05/26 20:32:18;;;;;;;4.97;1.20;;;;;;;17.33;73.41;101028.47;20973854;28;20143;-68
2022/05/26 20:42:21;;;;;;;4.20;1.23;;;;;;;17.23;74.08;101027.06;20974182;28;20393;-67
2022/05/26 20:52:24;;;;;;;4.07;1.10;;;;;;;17.21;74.72;101034.19;20973350;28;20052;-67
2022/05/26 21:02:26;;;;;;;5.18;1.20;;;;;;;17.16;74.10;101032.56;20974345;28;20048;-69
2022/05/26 21:12:27;;;;;;;4.70;1.20;;;;;;;17.12;75.32;101040.66;20951525;28;20182;-68
2022/05/26 21:22:31;;;;;;;4.78;1.20;;;;;;;17.00;75.78;101038.38;20890316;28;20057;-68
2022/05/26 21:32:33;;;;;;;4.20;1.52;;;;;;;16.88;77.58;101034.38;20894703;28;20049;-68
2022/05/26 21:42:34;;;;;;;4.40;1.48;;;;;;;16.85;77.96;101037.09;20902530;28;20053;-67
2022/05/26 21:52:36;;;;;;;4.68;1.77;;;;;;;16.80;78.56;101031.09;20904109;28;20110;-67
2022/05/26 22:02:41;;;;;;;5.45;1.35;;;;;;;16.74;78.65;101028.66;20913369;28;20045;-67
2022/05/26 22:12:44;;;;;;;4.10;1.33;;;;;;;16.64;78.83;101026.25;20971699;28;20049;-68
2022/05/26 22:22:47;;;;;;;3.33;1.30;;;;;;;16.58;79.41;101022.94;20908096;28;20063;-67
2022/05/26 22:32:49;;;;;;;6.00;1.23;;;;;;;16.50;79.71;101024.94;20907097;28;20052;-67
2022/05/26 22:42:57;;;;;;;4.50;1.50;;;;;;;16.44;81.20;101036.56;20907477;28;20049;-67
2022/05/26 22:53:02;;;;;;;4.53;1.20;;;;;;;16.32;81.58;101021.06;20907550;28;20430;-68
2022/05/26 23:03:04;;;;;;;3.42;1.33;;;;;;;16.11;83.79;101028.72;20904765;28;20047;-68
2022/05/26 23:13:06;;;;;;;4.47;1.27;;;;;;;15.91;85.43;101031.06;20905216;28;20136;-68
2022/05/26 23:23:07;;;;;;;3.63;1.17;;;;;;;15.71;87.24;101026.28;20904936;28;20486;-68
2022/05/26 23:33:09;;;;;;;2.90;1.20;;;;;;;15.53;88.61;101032.91;20902965;28;20052;-68
2022/05/26 23:43:23;;;;;;;5.63;1.35;;;;;;;15.37;89.54;101019.22;20904190;28;20041;-69
2022/05/26 23:53:25;;;;;;;2.97;1.30;;;;;;;15.26;90.44;101020.41;20902870;28;20053;-68
